createdAt,value
2023-02-19T00:01:49.373Z,96.97
2023-02-19T00:04:19.274Z,96.73
2023-02-19T00:06:49.082Z,97.02
2023-02-19T00:09:18.064Z,97.31
2023-02-19T00:11:46.438Z,96.96
2023-02-19T00:14:16.531Z,97.05
2023-02-19T00:16:45.708Z,96.79
2023-02-19T00:19:17.414Z,97.02
2023-02-19T00:21:43.992Z,97.09
2023-02-19T00:24:11.977Z,97.41
2023-02-19T00:26:42.215Z,97.24
2023-02-19T00:29:12.926Z,97.48
2023-02-19T00:31:40.385Z,97.35
2023-02-19T00:34:07.934Z,97.38
2023-02-19T00:36:38.067Z,97.47
2023-02-19T00:39:06.435Z,97.26
2023-02-19T00:41:35.380Z,97.36
2023-02-19T00:44:07.033Z,97.48
2023-02-19T00:46:41.195Z,97.63
2023-02-19T00:49:11.836Z,97.52
2023-02-19T00:51:38.829Z,97.54
2023-02-19T00:54:08.640Z,97.49
2023-02-19T00:56:35.168Z,97.23
2023-02-19T00:59:01.671Z,97.66
2023-02-19T01:01:28.164Z,97.52
2023-02-19T01:03:54.655Z,97.63
2023-02-19T01:06:21.706Z,97.63
2023-02-19T01:08:51.327Z,97.70
2023-02-19T01:11:18.630Z,97.57
2023-02-19T01:13:48.192Z,97.61
2023-02-19T01:16:24.868Z,97.62
2023-02-19T01:18:54.708Z,97.56
2023-02-19T01:21:23.641Z,97.30
2023-02-19T01:23:52.513Z,97.52
2023-02-19T01:26:23.207Z,97.35
2023-02-19T01:28:50.187Z,97.31
2023-02-19T01:31:22.918Z,97.27
2023-02-19T01:33:59.011Z,97.31
2023-02-19T01:36:26.761Z,97.34
2023-02-19T01:38:56.143Z,96.98
2023-02-19T01:41:25.277Z,97.31
2023-02-19T01:44:00.049Z,97.07
2023-02-19T01:46:32.731Z,96.97
2023-02-19T01:49:08.949Z,97.11
2023-02-19T01:51:43.841Z,97.01
2023-02-19T01:54:18.281Z,96.95
2023-02-19T01:56:49.528Z,97.13
2023-02-19T01:59:21.235Z,97.13
2023-02-19T02:01:51.441Z,97.05
2023-02-19T02:04:18.861Z,97.15
2023-02-19T02:06:50.948Z,97.05
2023-02-19T02:09:38.934Z,97.14
2023-02-19T02:12:07.426Z,97.16
2023-02-19T02:14:39.134Z,97.06
2023-02-19T02:17:18.214Z,97.12
2023-02-19T02:20:03.212Z,97.24
2023-02-19T02:22:37.830Z,97.14
2023-02-19T02:25:33.344Z,97.20
2023-02-19T02:28:16.984Z,97.12
2023-02-19T02:30:54.409Z,97.28
2023-02-19T02:33:28.763Z,97.22
2023-02-19T02:36:01.383Z,97.33
2023-02-19T02:38:35.077Z,97.29
2023-02-19T02:41:05.854Z,97.32
2023-02-19T02:43:34.933Z,97.37
2023-02-19T02:46:03.853Z,97.32
2023-02-19T02:48:38.453Z,97.31
2023-02-19T02:51:31.109Z,97.37
2023-02-19T02:54:37.041Z,97.47
2023-02-19T02:57:06.856Z,97.43
2023-02-19T02:59:37.169Z,97.40
2023-02-19T03:02:12.121Z,97.24
2023-02-19T03:05:09.781Z,97.42
2023-02-19T03:07:43.908Z,97.36
2023-02-19T03:10:14.431Z,97.40
2023-02-19T03:13:03.167Z,97.20
2023-02-19T03:15:58.442Z,97.15
2023-02-19T03:18:46.881Z,96.99
2023-02-19T03:21:19.384Z,97.32
2023-02-19T03:24:05.531Z,97.19
2023-02-19T03:26:33.824Z,97.20
2023-02-19T03:29:22.983Z,97.15
2023-02-19T03:31:57.956Z,97.15
2023-02-19T03:34:38.834Z,97.26
2023-02-19T03:37:29.257Z,97.27
2023-02-19T03:39:56.447Z,97.25
2023-02-19T03:42:32.232Z,97.18
2023-02-19T03:45:16.999Z,97.14
2023-02-19T03:48:03.000Z,97.20
2023-02-19T03:50:57.131Z,97.20
2023-02-19T03:53:36.512Z,97.05
2023-02-19T03:56:09.991Z,97.09
2023-02-19T03:58:47.448Z,97.15
2023-02-19T04:01:24.480Z,97.24
2023-02-19T04:03:53.891Z,97.21
2023-02-19T04:06:28.100Z,97.08
2023-02-19T04:09:02.864Z,97.17
2023-02-19T04:11:31.945Z,97.18
2023-02-19T04:14:07.532Z,97.08
2023-02-19T04:16:41.295Z,97.10
2023-02-19T04:19:14.129Z,97.06
2023-02-19T04:21:44.407Z,97.22
2023-02-19T04:24:18.594Z,97.02
2023-02-19T04:26:49.715Z,97.16
2023-02-19T04:29:16.341Z,97.24
2023-02-19T04:31:45.069Z,97.12
2023-02-19T04:34:11.543Z,97.40
2023-02-19T04:36:38.052Z,97.33
2023-02-19T04:39:04.511Z,97.24
2023-02-19T04:41:31.108Z,97.56
2023-02-19T04:43:57.681Z,97.28
2023-02-19T04:46:26.442Z,97.44
2023-02-19T04:48:52.885Z,97.87
2023-02-19T04:51:19.344Z,97.63
2023-02-19T04:53:45.821Z,97.34
2023-02-19T04:56:17.488Z,97.50
2023-02-19T04:58:47.246Z,97.44
2023-02-19T05:01:14.585Z,97.45
2023-02-19T05:03:41.338Z,97.81
2023-02-19T05:06:11.034Z,97.52
2023-02-19T05:08:40.334Z,97.47
2023-02-19T05:11:08.801Z,97.57
2023-02-19T05:13:38.607Z,97.35
2023-02-19T05:16:09.736Z,97.52
2023-02-19T05:18:38.540Z,97.53
2023-02-19T05:21:05.226Z,97.43
2023-02-19T05:23:34.241Z,97.62
2023-02-19T05:26:12.758Z,97.61
2023-02-19T05:28:41.618Z,97.49
2023-02-19T05:31:11.775Z,97.52
2023-02-19T05:33:39.207Z,97.47
2023-02-19T05:36:09.553Z,97.52
2023-02-19T05:38:37.025Z,97.57
2023-02-19T05:41:15.485Z,97.73
2023-02-19T05:43:46.454Z,97.77
2023-02-19T05:46:15.452Z,97.59
2023-02-19T05:48:42.051Z,97.74
2023-02-19T05:51:12.370Z,97.79
2023-02-19T05:53:47.130Z,97.71
2023-02-19T05:56:41.799Z,97.70
2023-02-19T05:59:08.270Z,97.74
2023-02-19T06:01:35.473Z,97.64
2023-02-19T06:04:04.271Z,97.65
2023-02-19T06:06:36.950Z,97.61
2023-02-19T06:09:06.784Z,97.61
2023-02-19T06:11:34.245Z,97.63
2023-02-19T06:14:01.382Z,97.46
2023-02-19T06:16:28.427Z,97.49
2023-02-19T06:18:56.307Z,97.28
2023-02-19T06:21:22.807Z,97.34
2023-02-19T06:23:49.830Z,97.24
2023-02-19T06:26:23.943Z,97.24
2023-02-19T06:28:52.534Z,96.99
2023-02-19T06:31:23.245Z,97.13
2023-02-19T06:33:52.890Z,97.31
2023-02-19T06:36:26.464Z,97.01
2023-02-19T06:38:59.245Z,97.08
2023-02-19T06:41:25.773Z,97.08
2023-02-19T06:43:52.389Z,96.98
2023-02-19T06:46:18.915Z,97.15
2023-02-19T06:48:48.283Z,97.29
2023-02-19T06:51:18.793Z,97.25
2023-02-19T06:53:48.210Z,97.34
2023-02-19T06:56:20.795Z,97.51
2023-02-19T06:58:49.501Z,97.39
2023-02-19T07:01:18.649Z,97.34
2023-02-19T07:03:47.544Z,97.55
2023-02-19T07:06:15.772Z,97.62
2023-02-19T07:08:42.110Z,97.50
2023-02-19T07:11:12.332Z,97.59
2023-02-19T07:13:39.221Z,97.40
2023-02-19T07:16:09.560Z,97.57
2023-02-19T07:18:38.939Z,97.37
2023-02-19T07:21:08.123Z,97.49
2023-02-19T07:23:37.826Z,97.54
2023-02-19T07:26:11.817Z,97.28
2023-02-19T07:28:41.147Z,97.19
2023-02-19T07:31:07.841Z,97.22
2023-02-19T07:33:34.482Z,97.39
2023-02-19T07:36:03.325Z,97.29
2023-02-19T07:38:29.846Z,97.41
2023-02-19T07:40:58.781Z,97.32
2023-02-19T07:43:27.701Z,97.21
2023-02-19T07:45:54.632Z,97.07
2023-02-19T07:48:21.597Z,97.17
2023-02-19T07:50:59.752Z,97.05
2023-02-19T07:53:26.671Z,97.11
2023-02-19T07:56:02.406Z,96.91
2023-02-19T07:58:31.713Z,97.12
2023-02-19T08:01:06.104Z,96.98
2023-02-19T08:03:33.808Z,96.76
2023-02-19T08:06:00.276Z,96.75
2023-02-19T08:08:26.716Z,96.95
2023-02-19T08:11:11.929Z,96.91
2023-02-19T08:13:40.880Z,96.84
2023-02-19T08:16:18.329Z,96.76
2023-02-19T08:18:53.075Z,96.82
2023-02-19T08:21:22.104Z,96.85
2023-02-19T08:23:51.134Z,96.80
2023-02-19T08:26:18.270Z,96.92
2023-02-19T08:28:50.506Z,96.83
2023-02-19T08:31:17.095Z,96.92
2023-02-19T08:33:43.902Z,96.79
2023-02-19T08:36:15.147Z,96.80
2023-02-19T08:38:46.492Z,97.06
2023-02-19T08:41:14.663Z,97.03
2023-02-19T08:43:41.892Z,97.10
2023-02-19T08:46:10.527Z,97.14
2023-02-19T08:48:40.477Z,97.22
2023-02-19T08:51:10.736Z,97.33
2023-02-19T08:53:41.110Z,97.41
2023-02-19T08:56:13.517Z,97.39
2023-02-19T08:58:40.671Z,97.47
2023-02-19T09:01:15.834Z,97.43
2023-02-19T09:03:43.052Z,97.44
2023-02-19T09:06:21.979Z,97.45
2023-02-19T09:08:48.420Z,97.28
2023-02-19T09:11:17.284Z,97.46
2023-02-19T09:13:44.109Z,97.45
2023-02-19T09:16:13.492Z,97.19
2023-02-19T09:18:40.250Z,97.12
2023-02-19T09:21:07.539Z,97.13
2023-02-19T09:23:35.685Z,97.08
2023-02-19T09:26:06.872Z,97.12
2023-02-19T09:28:33.946Z,97.06
2023-02-19T09:31:09.185Z,96.76
2023-02-19T09:33:36.212Z,96.52
2023-02-19T09:36:05.871Z,96.36
2023-02-19T09:38:34.863Z,96.32
2023-02-19T09:41:32.125Z,96.13
2023-02-19T09:44:02.429Z,96.22
2023-02-19T09:46:33.395Z,96.16
2023-02-19T09:49:10.568Z,95.88
2023-02-19T09:51:44.044Z,96.02
2023-02-19T09:54:21.589Z,95.70
2023-02-19T09:56:54.673Z,95.57
2023-02-19T09:59:26.226Z,95.34
2023-02-19T10:02:17.405Z,95.40
2023-02-19T10:04:51.074Z,95.36
2023-02-19T10:07:25.220Z,94.57
2023-02-19T10:10:02.182Z,94.98
2023-02-19T10:12:31.671Z,95.16
2023-02-19T10:15:25.226Z,95.54
2023-02-19T10:17:51.772Z,95.75
2023-02-19T10:20:24.615Z,95.75
2023-02-19T10:23:06.092Z,96.13
2023-02-19T10:25:37.365Z,96.27
2023-02-19T10:28:06.212Z,96.29
2023-02-19T10:30:35.532Z,96.25
2023-02-19T10:33:09.790Z,96.08
2023-02-19T10:35:56.332Z,96.06
2023-02-19T10:38:46.876Z,96.05
2023-02-19T10:41:17.790Z,96.11
2023-02-19T10:44:00.298Z,96.28
2023-02-19T10:46:35.765Z,96.28
2023-02-19T10:49:06.111Z,96.04
2023-02-19T10:51:36.823Z,95.96
2023-02-19T10:54:20.735Z,95.86
2023-02-19T10:56:47.501Z,95.84
2023-02-19T10:59:25.676Z,95.50
2023-02-19T11:01:55.962Z,95.27
2023-02-19T11:04:22.542Z,95.14
2023-02-19T11:06:51.575Z,94.94
2023-02-19T11:09:29.063Z,94.69
2023-02-19T11:12:00.822Z,94.79
2023-02-19T11:14:29.208Z,94.61
2023-02-19T11:16:58.045Z,94.55
2023-02-19T11:19:30.612Z,94.53
2023-02-19T11:22:01.209Z,94.44
2023-02-19T11:24:40.527Z,94.28
2023-02-19T11:27:18.172Z,94.27
2023-02-19T11:29:44.614Z,94.55
2023-02-19T11:32:22.736Z,94.89
2023-02-19T11:34:49.139Z,94.89
2023-02-19T11:37:24.104Z,95.09
2023-02-19T11:39:51.761Z,95.28
2023-02-19T11:42:51.317Z,95.37
2023-02-19T11:45:47.258Z,95.41
2023-02-19T11:48:38.231Z,95.57
2023-02-19T11:51:37.116Z,95.86
2023-02-19T11:54:20.025Z,95.31
2023-02-19T11:56:55.004Z,95.31
2023-02-19T11:59:38.820Z,95.67
2023-02-19T12:02:24.508Z,95.49
2023-02-19T12:05:02.985Z,95.30
2023-02-19T12:07:56.052Z,95.46
2023-02-19T12:10:42.895Z,95.55
2023-02-19T12:13:21.304Z,95.07
2023-02-19T12:16:06.789Z,95.02
2023-02-19T12:18:41.499Z,95.17
2023-02-19T12:21:19.930Z,95.07
2023-02-19T12:24:18.381Z,95.05
2023-02-19T12:27:22.125Z,94.96
2023-02-19T12:30:12.170Z,94.75
2023-02-19T12:33:18.484Z,94.82
2023-02-19T12:36:01.742Z,94.68
2023-02-19T12:38:33.520Z,94.52
2023-02-19T12:41:10.387Z,93.71
2023-02-19T12:43:43.219Z,94.07
2023-02-19T12:46:21.624Z,93.62
2023-02-19T12:49:22.596Z,94.12
2023-02-19T12:51:55.142Z,93.90
2023-02-19T12:54:28.211Z,94.26
2023-02-19T12:57:11.627Z,94.46
2023-02-19T12:59:43.914Z,94.46
2023-02-19T13:02:28.359Z,94.22
2023-02-19T13:04:57.123Z,93.70
2023-02-19T13:07:32.762Z,93.26
2023-02-19T13:10:04.103Z,93.25
2023-02-19T13:12:38.201Z,93.01
2023-02-19T13:15:19.059Z,93.11
2023-02-19T13:17:55.598Z,93.13
2023-02-19T13:20:41.025Z,93.13
2023-02-19T13:23:50.182Z,93.02
2023-02-19T13:26:22.348Z,93.16
2023-02-19T13:29:07.695Z,92.90
2023-02-19T13:31:58.758Z,92.57
2023-02-19T13:34:43.314Z,92.71
2023-02-19T13:37:12.711Z,92.96
2023-02-19T13:39:50.070Z,92.68
2023-02-19T13:42:36.585Z,92.70
2023-02-19T13:45:05.898Z,92.41
2023-02-19T13:47:49.097Z,92.70
2023-02-19T13:50:36.291Z,92.79
2023-02-19T13:53:51.578Z,92.28
2023-02-19T13:56:30.174Z,92.16
2023-02-19T13:59:16.738Z,92.37
2023-02-19T14:01:55.601Z,92.07
2023-02-19T14:04:22.017Z,92.00
2023-02-19T14:07:03.886Z,92.02
2023-02-19T14:09:36.644Z,92.07
2023-02-19T14:12:16.035Z,91.30
2023-02-19T14:14:42.778Z,91.04
2023-02-19T14:17:09.245Z,90.90
2023-02-19T14:19:42.779Z,89.26
2023-02-19T14:22:49.658Z,88.95
2023-02-19T14:25:22.332Z,88.76
2023-02-19T14:27:50.319Z,88.56
2023-02-19T14:30:17.047Z,88.73
2023-02-19T14:32:51.040Z,88.94
2023-02-19T14:35:20.641Z,88.41
2023-02-19T14:37:49.544Z,88.75
2023-02-19T14:40:34.887Z,88.33
2023-02-19T14:43:02.489Z,88.03
2023-02-19T14:45:31.306Z,87.84
2023-02-19T14:48:01.355Z,88.35
2023-02-19T14:50:32.032Z,88.83
2023-02-19T14:53:04.743Z,88.22
2023-02-19T14:55:36.352Z,87.41
2023-02-19T14:58:27.325Z,86.75
2023-02-19T15:00:56.213Z,86.07
2023-02-19T15:03:44.802Z,85.31
2023-02-19T15:06:18.568Z,84.79
2023-02-19T15:08:51.933Z,85.07
2023-02-19T15:11:24.882Z,85.01
2023-02-19T15:13:58.788Z,85.19
2023-02-19T15:16:27.117Z,85.19
2023-02-19T15:18:56.458Z,84.72
2023-02-19T15:21:32.357Z,84.80
2023-02-19T15:24:04.075Z,84.44
2023-02-19T15:26:42.785Z,84.11
2023-02-19T15:29:12.463Z,84.21
2023-02-19T15:31:55.646Z,84.37
2023-02-19T15:34:30.995Z,84.49
2023-02-19T15:37:04.268Z,84.82
2023-02-19T15:39:34.673Z,84.56
2023-02-19T15:42:06.131Z,85.03
2023-02-19T15:44:39.467Z,85.06
2023-02-19T15:47:21.966Z,84.83
2023-02-19T15:50:23.962Z,85.02
2023-02-19T15:52:55.037Z,85.60
2023-02-19T15:55:33.407Z,85.84
2023-02-19T15:58:50.988Z,86.48
2023-02-19T16:01:22.593Z,86.81
2023-02-19T16:03:49.308Z,87.55
2023-02-19T16:06:17.873Z,88.12
2023-02-19T16:09:07.519Z,88.74
2023-02-19T16:11:52.707Z,89.39
2023-02-19T16:14:19.250Z,89.81
2023-02-19T16:16:48.669Z,89.82
2023-02-19T16:19:23.139Z,90.37
2023-02-19T16:21:52.515Z,90.46
2023-02-19T16:24:36.224Z,90.97
2023-02-19T16:27:04.499Z,90.94
2023-02-19T16:29:33.666Z,91.04
2023-02-19T16:32:07.439Z,91.16
2023-02-19T16:34:48.427Z,91.22
2023-02-19T16:37:33.914Z,91.02
2023-02-19T16:40:09.497Z,91.16
2023-02-19T16:42:59.387Z,91.12
2023-02-19T16:45:29.273Z,91.06
2023-02-19T16:47:55.890Z,91.60
2023-02-19T16:50:26.751Z,91.11
2023-02-19T16:52:54.075Z,91.10
2023-02-19T16:55:23.080Z,91.14
2023-02-19T16:57:49.739Z,91.06
2023-02-19T17:00:21.632Z,91.16
2023-02-19T17:02:49.601Z,91.00
2023-02-19T17:05:23.056Z,91.09
2023-02-19T17:07:50.354Z,91.10
2023-02-19T17:10:19.248Z,90.98
2023-02-19T17:12:48.054Z,90.97
2023-02-19T17:15:19.647Z,90.87
2023-02-19T17:17:50.932Z,90.78
2023-02-19T17:20:19.671Z,90.64
2023-02-19T17:22:48.580Z,90.77
2023-02-19T17:25:15.184Z,90.57
2023-02-19T17:27:41.687Z,90.50
2023-02-19T17:30:34.839Z,90.58
2023-02-19T17:33:01.806Z,90.44
2023-02-19T17:35:28.618Z,90.31
2023-02-19T17:37:55.108Z,90.52
2023-02-19T17:40:33.077Z,90.25
2023-02-19T17:43:05.230Z,90.25
2023-02-19T17:45:33.964Z,90.18
2023-02-19T17:48:01.062Z,90.10
2023-02-19T17:50:30.809Z,90.11
2023-02-19T17:52:59.848Z,90.14
2023-02-19T17:55:27.170Z,89.77
2023-02-19T17:57:54.271Z,89.89
2023-02-19T18:00:26.148Z,89.96
2023-02-19T18:02:52.958Z,90.31
2023-02-19T18:05:19.558Z,90.02
2023-02-19T18:07:47.809Z,89.62
2023-02-19T18:10:15.409Z,89.61
2023-02-19T18:12:44.177Z,89.46
2023-02-19T18:15:18.313Z,89.13
2023-02-19T18:17:44.838Z,89.15
2023-02-19T18:20:21.901Z,89.37
2023-02-19T18:22:48.939Z,89.40
2023-02-19T18:25:21.368Z,89.24
2023-02-19T18:27:53.102Z,89.36
2023-02-19T18:30:25.128Z,89.11
2023-02-19T18:32:52.034Z,89.04
2023-02-19T18:35:19.758Z,88.79
2023-02-19T18:37:51.610Z,88.80
2023-02-19T18:40:22.896Z,88.80
2023-02-19T18:42:52.232Z,88.73
2023-02-19T18:45:24.104Z,88.70
2023-02-19T18:47:50.856Z,88.69
2023-02-19T18:50:19.493Z,88.62
2023-02-19T18:52:46.436Z,88.33
2023-02-19T18:55:13.300Z,88.07
2023-02-19T18:57:39.858Z,88.50
2023-02-19T19:00:09.826Z,88.53
2023-02-19T19:02:48.242Z,88.71
2023-02-19T19:05:18.404Z,88.57
2023-02-19T19:07:44.886Z,88.72
2023-02-19T19:10:14.784Z,88.98
2023-02-19T19:12:41.378Z,89.09
2023-02-19T19:15:10.972Z,89.33
2023-02-19T19:17:37.467Z,89.50
2023-02-19T19:20:06.999Z,89.41
2023-02-19T19:22:33.579Z,89.97
2023-02-19T19:25:00.224Z,89.95
2023-02-19T19:27:26.718Z,90.19
2023-02-19T19:29:53.287Z,90.23
2023-02-19T19:32:21.072Z,90.49
2023-02-19T19:34:47.864Z,90.85
2023-02-19T19:37:16.702Z,90.98
2023-02-19T19:39:45.753Z,90.94
2023-02-19T19:42:14.757Z,90.90
2023-02-19T19:44:43.766Z,91.23
2023-02-19T19:47:10.225Z,91.38
2023-02-19T19:49:40.880Z,91.50
2023-02-19T19:52:08.196Z,91.70
2023-02-19T19:54:34.829Z,92.04
2023-02-19T19:57:04.369Z,92.15
2023-02-19T19:59:37.015Z,92.41
2023-02-19T20:02:03.495Z,92.42
2023-02-19T20:04:32.459Z,92.74
2023-02-19T20:07:02.111Z,92.79
2023-02-19T20:09:33.640Z,92.95
2023-02-19T20:12:02.978Z,93.04
2023-02-19T20:14:32.221Z,92.93
2023-02-19T20:16:58.758Z,93.17
2023-02-19T20:19:25.371Z,93.11
2023-02-19T20:21:54.419Z,93.18
2023-02-19T20:24:33.149Z,93.42
2023-02-19T20:27:03.010Z,93.32
2023-02-19T20:29:31.365Z,93.45
2023-02-19T20:32:00.054Z,93.37
2023-02-19T20:34:27.062Z,93.49
2023-02-19T20:36:56.085Z,93.71
2023-02-19T20:39:28.564Z,93.79
2023-02-19T20:41:58.971Z,93.85
2023-02-19T20:44:27.351Z,93.72
2023-02-19T20:46:55.011Z,94.05
2023-02-19T20:49:24.911Z,93.92
2023-02-19T20:51:55.466Z,93.77
2023-02-19T20:54:26.500Z,93.93
2023-02-19T20:56:57.517Z,94.01
2023-02-19T20:59:27.312Z,93.84
2023-02-19T21:02:02.089Z,94.05
2023-02-19T21:04:28.625Z,94.03
2023-02-19T21:06:59.647Z,94.02
2023-02-19T21:09:26.316Z,94.17
2023-02-19T21:11:53.135Z,93.97
2023-02-19T21:14:22.018Z,94.17
2023-02-19T21:16:50.974Z,94.33
2023-02-19T21:19:19.889Z,94.35
2023-02-19T21:21:50.117Z,94.32
2023-02-19T21:24:16.897Z,94.41
2023-02-19T21:26:45.021Z,94.63
2023-02-19T21:29:19.819Z,94.53
2023-02-19T21:31:48.916Z,94.69
2023-02-19T21:34:18.120Z,94.80
2023-02-19T21:36:48.030Z,94.85
2023-02-19T21:39:19.946Z,94.90
2023-02-19T21:41:46.679Z,94.90
2023-02-19T21:44:13.682Z,94.95
2023-02-19T21:46:42.930Z,95.05
2023-02-19T21:49:10.388Z,95.18
2023-02-19T21:51:42.353Z,95.11
2023-02-19T21:54:16.518Z,95.08
2023-02-19T21:56:45.946Z,95.28
2023-02-19T21:59:17.385Z,95.24
2023-02-19T22:01:46.822Z,95.20
2023-02-19T22:04:16.333Z,95.33
2023-02-19T22:06:46.146Z,95.23
2023-02-19T22:09:15.699Z,95.33
2023-02-19T22:11:42.549Z,95.43
2023-02-19T22:14:09.394Z,95.59
2023-02-19T22:16:36.080Z,95.34
2023-02-19T22:19:02.644Z,95.45
2023-02-19T22:21:35.452Z,95.57
2023-02-19T22:24:03.078Z,95.55
2023-02-19T22:26:33.036Z,95.66
2023-02-19T22:29:08.307Z,95.71
2023-02-19T22:31:35.553Z,95.69
2023-02-19T22:34:02.696Z,95.99
2023-02-19T22:36:33.482Z,95.71
2023-02-19T22:39:03.798Z,95.97
2023-02-19T22:41:30.700Z,95.82
2023-02-19T22:43:58.395Z,95.90
2023-02-19T22:46:26.902Z,95.97
2023-02-19T22:48:56.699Z,95.99
2023-02-19T22:51:26.500Z,95.90
2023-02-19T22:53:58.187Z,96.18
2023-02-19T22:56:30.802Z,96.10
2023-02-19T22:58:57.584Z,96.08
2023-02-19T23:01:27.207Z,96.12
2023-02-19T23:03:58.793Z,96.00
2023-02-19T23:06:31.506Z,95.98
2023-02-19T23:09:05.004Z,96.01
2023-02-19T23:11:38.940Z,95.96
2023-02-19T23:14:06.383Z,95.98
2023-02-19T23:16:35.925Z,95.87
2023-02-19T23:19:04.980Z,95.94
2023-02-19T23:21:31.555Z,95.86
2023-02-19T23:23:58.414Z,95.69
2023-02-19T23:26:25.453Z,95.53
2023-02-19T23:28:54.447Z,95.58
2023-02-19T23:31:21.041Z,95.69
2023-02-19T23:33:47.701Z,95.53
2023-02-19T23:36:16.896Z,95.62
2023-02-19T23:38:48.633Z,95.58
2023-02-19T23:41:19.551Z,95.62
2023-02-19T23:43:48.679Z,95.44
2023-02-19T23:46:17.703Z,95.43
2023-02-19T23:48:45.952Z,95.50
2023-02-19T23:51:14.676Z,95.32
2023-02-19T23:53:41.242Z,95.13
2023-02-19T23:56:10.709Z,95.12
2023-02-19T23:58:37.467Z,95.02
